createdAt,value
2022-11-03T00:01:37.733Z,1.30
2022-11-03T00:04:06.267Z,1.70
2022-11-03T00:06:35.071Z,1.57
2022-11-03T00:09:06.624Z,2.57
2022-11-03T00:11:35.244Z,2.07
2022-11-03T00:14:03.765Z,1.40
2022-11-03T00:16:32.087Z,1.80
2022-11-03T00:19:01.698Z,1.50
2022-11-03T00:21:30.348Z,1.67
2022-11-03T00:23:58.555Z,1.67
2022-11-03T00:26:28.092Z,1.20
2022-11-03T00:28:57.614Z,1.20
2022-11-03T00:31:27.508Z,1.83
2022-11-03T00:33:56.365Z,1.80
2022-11-03T00:36:27.622Z,1.50
2022-11-03T00:38:56.255Z,1.70
2022-11-03T00:41:25.584Z,2.00
2022-11-03T00:43:54.397Z,1.93
2022-11-03T00:46:23.756Z,1.47
2022-11-03T00:48:52.148Z,2.40
2022-11-03T00:51:21.900Z,1.73
2022-11-03T00:53:53.301Z,1.30
2022-11-03T00:56:23.328Z,1.33
2022-11-03T00:58:52.322Z,1.37
2022-11-03T01:01:22.546Z,1.50
2022-11-03T01:04:06.143Z,2.00
2022-11-03T01:06:54.459Z,1.43
2022-11-03T01:09:25.995Z,1.73
2022-11-03T01:12:00.185Z,1.67
2022-11-03T01:14:30.955Z,1.77
2022-11-03T01:16:59.226Z,1.53
2022-11-03T01:19:28.121Z,1.43
2022-11-03T01:21:56.534Z,1.90
2022-11-03T01:24:25.953Z,1.83
2022-11-03T01:26:54.133Z,2.17
2022-11-03T01:29:22.177Z,1.87
2022-11-03T01:31:50.471Z,1.93
2022-11-03T01:34:20.440Z,2.13
2022-11-03T01:36:49.331Z,2.27
2022-11-03T01:39:19.022Z,2.00
2022-11-03T01:41:50.322Z,1.50
2022-11-03T01:44:34.704Z,2.13
2022-11-03T01:47:08.543Z,1.30
2022-11-03T01:49:42.424Z,1.50
2022-11-03T01:52:16.420Z,2.70
2022-11-03T01:54:46.821Z,2.73
2022-11-03T01:57:20.815Z,1.37
2022-11-03T01:59:49.726Z,2.60
2022-11-03T02:02:17.878Z,1.90
2022-11-03T02:04:46.322Z,1.60
2022-11-03T02:07:21.113Z,1.70
2022-11-03T02:09:49.200Z,1.40
2022-11-03T02:12:21.046Z,1.30
2022-11-03T02:14:55.638Z,1.80
2022-11-03T02:17:26.929Z,1.40
2022-11-03T02:19:59.101Z,1.30
2022-11-03T02:22:35.301Z,1.40
2022-11-03T02:25:13.430Z,1.60
2022-11-03T02:27:43.188Z,1.50
2022-11-03T02:30:12.081Z,1.40
2022-11-03T02:32:49.393Z,1.57
2022-11-03T02:35:23.760Z,1.30
2022-11-03T02:37:57.558Z,1.77
2022-11-03T02:40:29.504Z,1.50
2022-11-03T02:43:01.837Z,1.30
2022-11-03T02:45:30.388Z,2.00
2022-11-03T02:48:00.894Z,1.37
2022-11-03T02:50:30.611Z,1.47
2022-11-03T02:52:59.041Z,3.93
2022-11-03T02:55:35.147Z,1.40
2022-11-03T02:58:12.789Z,2.10
2022-11-03T03:00:47.102Z,1.60
2022-11-03T03:03:21.723Z,1.50
2022-11-03T03:05:54.038Z,1.73
2022-11-03T03:08:24.085Z,1.50
2022-11-03T03:10:52.995Z,1.30
2022-11-03T03:13:24.551Z,2.93
2022-11-03T03:16:06.588Z,1.90
2022-11-03T03:18:48.988Z,1.43
2022-11-03T03:21:20.894Z,2.33
2022-11-03T03:23:55.177Z,1.30
2022-11-03T03:26:27.735Z,1.83
2022-11-03T03:28:59.671Z,1.47
2022-11-03T03:31:29.787Z,1.60
2022-11-03T03:34:04.256Z,1.27
2022-11-03T03:36:36.057Z,1.40
2022-11-03T03:39:07.201Z,1.83
2022-11-03T03:41:37.201Z,1.30
2022-11-03T03:44:10.456Z,1.50
2022-11-03T03:46:42.499Z,1.77
2022-11-03T03:49:10.642Z,1.60
2022-11-03T03:51:39.554Z,1.67
2022-11-03T03:54:07.621Z,1.33
2022-11-03T03:56:41.182Z,1.30
2022-11-03T03:59:10.603Z,1.33
2022-11-03T04:01:39.003Z,1.60
2022-11-03T04:04:07.148Z,2.80
2022-11-03T04:06:35.157Z,1.47
2022-11-03T04:09:03.182Z,1.30
2022-11-03T04:11:47.880Z,1.63
2022-11-03T04:14:34.770Z,1.27
2022-11-03T04:17:20.446Z,1.40
2022-11-03T04:20:06.327Z,2.80
2022-11-03T04:22:34.826Z,1.50
2022-11-03T04:25:02.889Z,3.20
2022-11-03T04:27:33.273Z,1.53
2022-11-03T04:30:10.976Z,1.50
2022-11-03T04:32:39.123Z,1.37
2022-11-03T04:35:16.431Z,1.50
2022-11-03T04:37:47.311Z,1.80
2022-11-03T04:40:17.804Z,1.67
2022-11-03T04:42:46.601Z,2.37
2022-11-03T04:45:24.556Z,1.73
2022-11-03T04:47:53.966Z,1.30
2022-11-03T04:50:24.532Z,1.30
2022-11-03T04:52:56.639Z,1.40
2022-11-03T04:55:25.303Z,1.30
2022-11-03T04:57:58.455Z,1.30
2022-11-03T05:00:27.916Z,1.27
2022-11-03T05:02:56.689Z,2.10
2022-11-03T05:05:26.900Z,1.40
2022-11-03T05:07:56.826Z,1.57
2022-11-03T05:10:27.472Z,1.40
2022-11-03T05:12:56.348Z,1.53
2022-11-03T05:15:36.203Z,1.30
2022-11-03T05:18:14.868Z,1.30
2022-11-03T05:20:50.023Z,1.30
2022-11-03T05:23:19.324Z,1.50
2022-11-03T05:25:49.933Z,1.50
2022-11-03T05:28:27.450Z,1.43
2022-11-03T05:30:57.405Z,1.37
2022-11-03T05:33:30.998Z,1.30
2022-11-03T05:36:02.288Z,1.50
2022-11-03T05:38:33.355Z,1.40
2022-11-03T05:41:02.230Z,1.50
2022-11-03T05:43:30.897Z,1.40
2022-11-03T05:46:03.825Z,1.60
2022-11-03T05:48:34.978Z,2.43
2022-11-03T05:51:12.201Z,1.60
2022-11-03T05:53:43.445Z,2.00
2022-11-03T05:56:17.430Z,1.37
2022-11-03T05:58:46.340Z,1.60
2022-11-03T06:01:22.318Z,1.47
2022-11-03T06:03:50.630Z,1.30
2022-11-03T06:06:28.003Z,1.40
2022-11-03T06:09:00.431Z,1.80
2022-11-03T06:11:33.901Z,1.50
2022-11-03T06:14:02.218Z,1.50
2022-11-03T06:16:45.007Z,1.40
2022-11-03T06:19:25.631Z,1.40
2022-11-03T06:21:56.552Z,1.37
2022-11-03T06:24:27.663Z,1.40
2022-11-03T06:26:57.376Z,1.50
2022-11-03T06:29:25.683Z,1.40
2022-11-03T06:31:58.000Z,1.50
2022-11-03T06:34:39.946Z,1.50
2022-11-03T06:37:23.504Z,2.27
2022-11-03T06:39:54.974Z,1.50
2022-11-03T06:42:25.656Z,1.50
2022-11-03T06:44:57.352Z,1.50
2022-11-03T06:47:28.479Z,1.47
2022-11-03T06:49:58.113Z,1.43
2022-11-03T06:52:29.630Z,1.40
2022-11-03T06:55:12.331Z,1.40
2022-11-03T06:57:45.688Z,1.37
2022-11-03T07:00:33.464Z,1.47
2022-11-03T07:03:11.442Z,1.40
2022-11-03T07:05:40.622Z,1.40
2022-11-03T07:08:22.304Z,1.33
2022-11-03T07:10:52.252Z,1.30
2022-11-03T07:13:24.933Z,1.63
2022-11-03T07:15:53.620Z,1.50
2022-11-03T07:18:26.200Z,1.50
2022-11-03T07:20:55.550Z,1.30
2022-11-03T07:23:25.637Z,1.50
2022-11-03T07:25:55.571Z,1.40
2022-11-03T07:28:27.968Z,1.50
2022-11-03T07:30:56.046Z,1.27
2022-11-03T07:33:28.783Z,1.63
2022-11-03T07:36:14.862Z,1.20
2022-11-03T07:38:46.072Z,2.03
2022-11-03T07:41:19.603Z,1.73
2022-11-03T07:43:52.582Z,3.07
2022-11-03T07:46:22.591Z,1.60
2022-11-03T07:48:55.345Z,1.50
2022-11-03T07:51:25.892Z,1.40
2022-11-03T07:53:56.887Z,1.20
2022-11-03T07:56:27.570Z,1.30
2022-11-03T07:59:00.357Z,1.40
2022-11-03T08:01:30.672Z,2.17
2022-11-03T08:04:05.304Z,1.70
2022-11-03T08:06:33.887Z,1.50
2022-11-03T08:09:01.976Z,1.40
2022-11-03T08:11:30.201Z,1.40
2022-11-03T08:13:58.638Z,1.40
2022-11-03T08:16:26.728Z,1.30
2022-11-03T08:18:54.940Z,1.87
2022-11-03T08:21:24.689Z,1.33
2022-11-03T08:23:52.985Z,2.10
2022-11-03T08:26:21.373Z,1.50
2022-11-03T08:28:49.946Z,1.30
2022-11-03T08:31:18.328Z,1.60
2022-11-03T08:33:46.492Z,1.60
2022-11-03T08:36:14.861Z,1.27
2022-11-03T08:38:44.216Z,1.20
2022-11-03T08:41:12.245Z,1.30
2022-11-03T08:43:40.353Z,1.63
2022-11-03T08:46:18.076Z,1.47
2022-11-03T08:48:47.208Z,1.40
2022-11-03T08:51:16.448Z,1.50
2022-11-03T08:53:46.396Z,2.03
2022-11-03T08:56:16.974Z,1.40
2022-11-03T08:58:47.351Z,2.53
2022-11-03T09:01:15.937Z,3.10
2022-11-03T09:03:44.231Z,2.50
2022-11-03T09:06:12.469Z,1.33
2022-11-03T09:11:30.195Z,1.30
2022-11-03T09:13:58.328Z,1.87
2022-11-03T09:16:26.656Z,3.58
2022-11-03T09:18:55.402Z,1.70
2022-11-03T09:21:23.720Z,1.80
2022-11-03T09:23:51.716Z,1.80
2022-11-03T09:26:20.229Z,2.00
2022-11-03T09:28:50.375Z,2.07
2022-11-03T09:31:19.170Z,1.60
2022-11-03T09:33:47.250Z,1.90
2022-11-03T09:36:15.432Z,2.70
2022-11-03T09:38:43.755Z,2.70
2022-11-03T09:41:26.489Z,3.10
2022-11-03T09:43:59.195Z,1.77
2022-11-03T09:46:29.464Z,2.27
2022-11-03T09:48:57.782Z,2.37
2022-11-03T09:51:27.909Z,2.33
2022-11-03T09:53:58.832Z,2.90
2022-11-03T09:56:27.735Z,2.73
2022-11-03T09:58:57.150Z,1.80
2022-11-03T10:01:25.613Z,1.70
2022-11-03T10:03:57.831Z,1.50
2022-11-03T10:06:25.977Z,1.63
2022-11-03T10:08:54.320Z,2.07
2022-11-03T10:11:22.598Z,2.10
2022-11-03T10:13:55.063Z,2.00
2022-11-03T10:16:26.979Z,2.23
2022-11-03T10:18:55.320Z,2.20
2022-11-03T10:21:27.744Z,2.10
2022-11-03T10:23:55.768Z,2.50
2022-11-03T10:26:24.199Z,2.03
2022-11-03T10:29:00.507Z,2.40
2022-11-03T10:31:35.759Z,1.97
2022-11-03T10:34:04.864Z,3.10
2022-11-03T10:36:35.220Z,2.30
2022-11-03T10:39:25.319Z,3.10
2022-11-03T10:41:58.485Z,2.30
2022-11-03T10:44:28.780Z,1.97
2022-11-03T10:47:00.043Z,1.93
2022-11-03T10:49:29.933Z,2.10
2022-11-03T10:52:09.303Z,2.07
2022-11-03T10:54:38.148Z,2.57
2022-11-03T10:57:06.947Z,2.20
2022-11-03T10:59:38.175Z,2.67
2022-11-03T11:02:18.569Z,2.07
2022-11-03T11:04:49.161Z,2.30
2022-11-03T11:07:24.901Z,2.07
2022-11-03T11:09:54.150Z,2.17
2022-11-03T11:12:24.769Z,1.93
2022-11-03T11:14:55.761Z,2.23
2022-11-03T11:17:58.204Z,1.50
2022-11-03T11:20:35.197Z,2.23
2022-11-03T11:23:49.064Z,2.70
2022-11-03T11:26:32.962Z,2.00
2022-11-03T11:29:44.337Z,1.60
2022-11-03T11:32:51.940Z,1.73
2022-11-03T11:36:05.635Z,2.50
2022-11-03T11:38:58.018Z,2.30
2022-11-03T11:42:04.108Z,2.23
2022-11-03T11:45:09.162Z,3.50
2022-11-03T11:47:53.483Z,3.27
2022-11-03T11:50:32.590Z,2.93
2022-11-03T11:53:21.172Z,2.70
2022-11-03T11:55:55.163Z,2.63
2022-11-03T11:58:38.985Z,2.10
2022-11-03T12:01:21.667Z,2.40
2022-11-03T12:03:52.018Z,2.40
2022-11-03T12:06:34.560Z,2.50
2022-11-03T12:09:07.573Z,2.20
2022-11-03T12:11:46.094Z,2.77
2022-11-03T12:14:26.086Z,2.60
2022-11-03T12:16:54.299Z,2.10
2022-11-03T12:19:42.218Z,2.10
2022-11-03T12:22:12.224Z,3.63
2022-11-03T12:24:49.695Z,2.83
2022-11-03T12:27:44.370Z,2.60
2022-11-03T12:30:20.050Z,2.13
2022-11-03T12:32:48.892Z,2.57
2022-11-03T12:35:17.230Z,3.73
2022-11-03T12:37:46.273Z,3.20
2022-11-03T12:40:15.230Z,2.60
2022-11-03T12:42:44.799Z,2.97
2022-11-03T12:45:14.385Z,3.27
2022-11-03T12:47:42.537Z,2.07
2022-11-03T12:50:11.389Z,2.50
2022-11-03T12:52:39.532Z,2.10
2022-11-03T12:55:08.010Z,2.50
2022-11-03T12:57:36.119Z,3.33
2022-11-03T13:00:07.018Z,2.20
2022-11-03T13:02:35.792Z,3.80
2022-11-03T13:05:04.222Z,2.60
2022-11-03T13:07:34.947Z,2.33
2022-11-03T13:10:04.411Z,2.47
2022-11-03T13:12:32.454Z,2.63
2022-11-03T13:15:01.504Z,2.33
2022-11-03T13:17:40.407Z,2.37
2022-11-03T13:20:19.163Z,2.83
2022-11-03T13:22:47.219Z,2.30
2022-11-03T13:25:15.659Z,2.70
2022-11-03T13:27:43.681Z,2.70
2022-11-03T13:30:14.275Z,3.20
2022-11-03T13:32:43.703Z,2.23
2022-11-03T13:35:13.985Z,2.50
2022-11-03T13:37:42.851Z,3.13
2022-11-03T13:40:29.149Z,2.50
2022-11-03T13:43:00.971Z,2.73
2022-11-03T13:45:29.143Z,2.40
2022-11-03T13:50:46.971Z,3.00
2022-11-03T13:56:08.601Z,3.70
2022-11-03T14:01:26.596Z,2.20
2022-11-03T14:06:44.725Z,2.37
2022-11-03T14:09:12.840Z,2.30
2022-11-03T14:11:58.509Z,2.40
2022-11-03T14:14:26.568Z,2.90
2022-11-03T14:16:54.653Z,2.93
2022-11-03T14:19:33.402Z,2.50
2022-11-03T14:22:04.843Z,2.83
2022-11-03T14:24:32.873Z,2.40
2022-11-03T14:27:00.890Z,2.30
2022-11-03T14:29:28.922Z,2.67
2022-11-03T14:31:57.003Z,6.53
2022-11-03T14:34:26.604Z,3.97
2022-11-03T14:36:54.738Z,4.00
2022-11-03T14:39:22.834Z,4.73
2022-11-03T14:42:05.781Z,5.20
2022-11-03T14:44:34.863Z,2.17
2022-11-03T14:47:04.069Z,2.60
2022-11-03T14:49:34.727Z,2.30
2022-11-03T14:52:03.953Z,2.17
2022-11-03T14:54:32.812Z,2.30
2022-11-03T14:57:01.266Z,3.20
2022-11-03T14:59:29.511Z,4.57
2022-11-03T15:01:58.493Z,3.33
2022-11-03T15:04:27.095Z,3.63
2022-11-03T15:06:56.491Z,2.57
2022-11-03T15:09:24.571Z,2.80
2022-11-03T15:11:52.715Z,2.13
2022-11-03T15:14:20.814Z,2.73
2022-11-03T15:16:48.900Z,2.63
2022-11-03T15:19:17.089Z,2.67
2022-11-03T15:21:45.212Z,2.50
2022-11-03T15:27:02.630Z,2.33
2022-11-03T15:29:30.727Z,2.97
2022-11-03T15:31:58.775Z,2.63
2022-11-03T15:34:26.823Z,2.43
2022-11-03T15:36:54.892Z,2.53
2022-11-03T15:39:24.299Z,2.43
2022-11-03T15:41:52.469Z,3.17
2022-11-03T15:44:20.498Z,2.70
2022-11-03T15:46:48.535Z,2.33
2022-11-03T15:49:16.813Z,2.73
2022-11-03T15:51:44.853Z,2.10
2022-11-03T15:54:12.917Z,2.60
2022-11-03T15:56:42.321Z,3.10
2022-11-03T15:59:10.364Z,3.00
2022-11-03T16:01:38.591Z,2.83
2022-11-03T16:04:07.123Z,4.97
2022-11-03T16:09:24.271Z,4.60
2022-11-03T16:11:53.777Z,2.60
2022-11-03T16:14:21.963Z,2.67
2022-11-03T16:16:50.019Z,3.60
2022-11-03T16:19:18.311Z,3.37
2022-11-03T16:21:49.843Z,2.43
2022-11-03T16:24:18.543Z,2.60
2022-11-03T16:26:46.831Z,2.90
2022-11-03T16:29:16.458Z,3.37
2022-11-03T16:31:44.789Z,3.03
2022-11-03T16:34:12.972Z,5.20
2022-11-03T16:36:41.450Z,3.70
2022-11-03T16:39:12.385Z,3.20
2022-11-03T16:41:40.490Z,3.53
2022-11-03T16:44:08.480Z,2.40
2022-11-03T16:46:37.978Z,3.13
2022-11-03T16:49:06.022Z,2.67
2022-11-03T16:51:34.099Z,2.70
2022-11-03T16:54:02.142Z,2.10
2022-11-03T16:56:30.132Z,3.30
2022-11-03T16:58:58.194Z,4.10
2022-11-03T17:01:26.248Z,3.77
2022-11-03T17:03:55.756Z,3.30
2022-11-03T17:06:23.785Z,3.57
2022-11-03T17:08:53.432Z,3.87
2022-11-03T17:11:36.604Z,3.00
2022-11-03T17:14:06.243Z,3.50
2022-11-03T17:16:34.582Z,3.73
2022-11-03T17:19:04.383Z,3.80
2022-11-03T17:21:32.404Z,2.83
2022-11-03T17:24:00.564Z,2.80
2022-11-03T17:26:42.897Z,2.90
2022-11-03T17:29:16.682Z,3.23
2022-11-03T17:31:44.716Z,3.60
2022-11-03T17:34:14.186Z,3.30
2022-11-03T17:36:42.435Z,2.83
2022-11-03T17:39:14.461Z,2.90
2022-11-03T17:41:42.618Z,3.43
2022-11-03T17:44:12.779Z,3.72
2022-11-03T17:46:41.353Z,6.33
2022-11-03T17:49:09.604Z,3.07
2022-11-03T17:51:43.211Z,2.73
2022-11-03T17:54:17.016Z,5.22
2022-11-03T17:56:45.216Z,2.63
2022-11-03T17:59:16.139Z,2.47
2022-11-03T18:01:45.331Z,2.27
2022-11-03T18:06:48.843Z,2.77
2022-11-03T18:09:17.199Z,3.13
2022-11-03T18:12:02.972Z,3.47
2022-11-03T18:14:31.386Z,3.67
2022-11-03T18:16:59.678Z,3.20
2022-11-03T18:19:28.036Z,5.90
2022-11-03T18:21:58.951Z,3.97
2022-11-03T18:24:28.178Z,3.50
2022-11-03T18:26:56.298Z,3.20
2022-11-03T18:29:24.339Z,2.97
2022-11-03T18:31:52.499Z,2.63
2022-11-03T18:34:23.998Z,2.27
2022-11-03T18:36:52.832Z,2.83
2022-11-03T18:39:25.116Z,2.33
2022-11-03T18:41:53.121Z,5.10
2022-11-03T18:44:22.742Z,6.77
2022-11-03T18:46:52.286Z,10.37
2022-11-03T18:49:20.880Z,6.03
2022-11-03T18:51:51.074Z,4.43
2022-11-03T18:54:22.704Z,3.33
2022-11-03T18:56:52.584Z,3.30
2022-11-03T18:59:24.514Z,4.00
2022-11-03T19:01:52.999Z,3.27
2022-11-03T19:04:21.108Z,3.80
2022-11-03T19:06:51.897Z,4.10
2022-11-03T19:09:24.679Z,4.30
2022-11-03T19:11:55.510Z,4.67
2022-11-03T19:14:27.356Z,3.03
2022-11-03T19:19:45.751Z,3.40
2022-11-03T19:22:15.076Z,3.20
2022-11-03T19:24:44.813Z,3.70
2022-11-03T19:27:17.492Z,3.30
2022-11-03T19:29:46.854Z,3.53
2022-11-03T19:32:19.779Z,2.83
2022-11-03T19:34:50.738Z,3.47
2022-11-03T19:37:18.790Z,3.77
2022-11-03T19:39:48.681Z,3.70
2022-11-03T19:42:27.803Z,3.13
2022-11-03T19:44:56.091Z,3.13
2022-11-03T19:47:28.333Z,2.97
2022-11-03T19:50:00.831Z,3.17
2022-11-03T19:52:30.730Z,3.10
2022-11-03T19:55:03.401Z,3.10
2022-11-03T19:57:34.735Z,3.10
2022-11-03T20:00:03.371Z,3.80
2022-11-03T20:02:31.873Z,2.73
2022-11-03T20:05:00.131Z,3.40
2022-11-03T20:07:31.587Z,3.83
2022-11-03T20:10:03.444Z,3.10
2022-11-03T20:12:32.204Z,4.63
2022-11-03T20:15:00.404Z,3.57
2022-11-03T20:17:28.513Z,3.80
2022-11-03T20:19:57.096Z,5.17
2022-11-03T20:22:29.554Z,4.20
2022-11-03T20:25:05.446Z,4.43
2022-11-03T20:27:33.671Z,5.17
2022-11-03T20:30:02.981Z,4.30
2022-11-03T20:32:31.007Z,3.57
2022-11-03T20:34:59.168Z,3.47
2022-11-03T20:37:27.402Z,3.20
2022-11-03T20:39:55.560Z,3.60
2022-11-03T20:42:26.866Z,3.00
2022-11-03T20:44:55.062Z,4.47
2022-11-03T20:47:23.376Z,3.90
2022-11-03T20:49:51.423Z,3.23
2022-11-03T20:52:19.589Z,4.13
2022-11-03T20:54:47.876Z,2.70
2022-11-03T20:57:15.948Z,4.87
2022-11-03T20:59:47.393Z,2.63
2022-11-03T21:02:15.582Z,3.47
2022-11-03T21:04:44.041Z,3.73
2022-11-03T21:07:13.817Z,3.80
2022-11-03T21:09:42.206Z,4.67
2022-11-03T21:12:13.881Z,3.57
2022-11-03T21:15:05.185Z,3.00
2022-11-03T21:17:52.197Z,2.70
2022-11-03T21:20:20.389Z,3.00
2022-11-03T21:22:53.423Z,2.77
2022-11-03T21:25:24.098Z,3.57
2022-11-03T21:27:53.758Z,3.70
2022-11-03T21:30:22.999Z,3.40
2022-11-03T21:32:52.411Z,2.20
2022-11-03T21:35:22.314Z,4.40
2022-11-03T21:37:50.460Z,3.10
2022-11-03T21:40:18.933Z,4.23
2022-11-03T21:43:03.481Z,4.50
2022-11-03T21:45:31.524Z,4.30
2022-11-03T21:48:18.954Z,3.40
2022-11-03T21:50:47.207Z,3.50
2022-11-03T21:53:15.343Z,3.10
2022-11-03T21:55:43.526Z,3.90
2022-11-03T21:58:11.833Z,2.87
2022-11-03T22:00:39.983Z,3.50
2022-11-03T22:03:09.853Z,3.37
2022-11-03T22:05:38.249Z,4.07
2022-11-03T22:08:09.129Z,3.70
2022-11-03T22:10:39.866Z,3.57
2022-11-03T22:13:09.204Z,3.90
2022-11-03T22:15:54.922Z,4.20
2022-11-03T22:18:24.746Z,2.63
2022-11-03T22:21:10.128Z,3.03
2022-11-03T22:24:10.234Z,2.07
2022-11-03T22:26:55.667Z,1.90
2022-11-03T22:29:41.349Z,1.73
2022-11-03T22:32:15.407Z,1.20
2022-11-03T22:35:02.405Z,1.30
2022-11-03T22:40:16.506Z,1.40
2022-11-03T22:43:02.072Z,1.50
2022-11-03T22:45:47.789Z,1.80
2022-11-03T22:48:15.855Z,1.40
2022-11-03T22:50:45.189Z,1.23
2022-11-03T22:53:30.749Z,1.27
2022-11-03T22:56:00.679Z,1.40
2022-11-03T22:58:30.601Z,1.90
2022-11-03T23:00:58.987Z,1.23
2022-11-03T23:03:27.097Z,1.30
2022-11-03T23:06:01.212Z,1.37
2022-11-03T23:08:31.518Z,1.30
2022-11-03T23:11:05.843Z,1.40
2022-11-03T23:13:33.974Z,1.30
2022-11-03T23:16:02.186Z,1.40
2022-11-03T23:18:47.480Z,1.30
2022-11-03T23:21:16.858Z,1.00
2022-11-03T23:24:02.511Z,1.60
2022-11-03T23:26:30.610Z,1.63
2022-11-03T23:28:58.722Z,1.30
2022-11-03T23:31:27.571Z,1.37
2022-11-03T23:33:55.640Z,1.40
2022-11-03T23:36:25.069Z,1.20
2022-11-03T23:38:53.110Z,1.30
2022-11-03T23:41:24.107Z,1.43
2022-11-03T23:43:52.562Z,1.40
2022-11-03T23:46:40.081Z,1.37
2022-11-03T23:49:08.340Z,1.87
2022-11-03T23:51:39.218Z,1.40
2022-11-03T23:54:09.585Z,1.93
2022-11-03T23:56:56.786Z,1.30
2022-11-03T23:59:25.373Z,1.30
